sensor_id;sensor_type;location;lat;lon;timestamp;temperature;humidity
4556;DHT22;2290;48.674;9.018;2023-03-17T00:01:37;6.20;99.90
4556;DHT22;2290;48.674;9.018;2023-03-17T00:04:03;6.20;99.90
4556;DHT22;2290;48.674;9.018;2023-03-17T00:06:30;6.20;99.90
4556;DHT22;2290;48.674;9.018;2023-03-17T00:08:58;6.20;99.90
4556;DHT22;2290;48.674;9.018;2023-03-17T00:11:24;6.20;99.90
4556;DHT22;2290;48.674;9.018;2023-03-17T00:13:50;6.10;99.90
4556;DHT22;2290;48.674;9.018;2023-03-17T00:16:24;6.00;99.90
4556;DHT22;2290;48.674;9.018;2023-03-17T00:18:52;5.80;99.90
4556;DHT22;2290;48.674;9.018;2023-03-17T00:21:26;5.80;99.90
4556;DHT22;2290;48.674;9.018;2023-03-17T00:23:53;5.70;99.90
4556;DHT22;2290;48.674;9.018;2023-03-17T00:26:19;5.70;99.90
4556;DHT22;2290;48.674;9.018;2023-03-17T00:28:47;5.70;99.90
4556;DHT22;2290;48.674;9.018;2023-03-17T00:31:15;5.70;99.90
4556;DHT22;2290;48.674;9.018;2023-03-17T00:33:43;5.70;99.90
4556;DHT22;2290;48.674;9.018;2023-03-17T00:36:25;5.70;99.90
4556;DHT22;2290;48.674;9.018;2023-03-17T00:38:52;5.70;99.90
4556;DHT22;2290;48.674;9.018;2023-03-17T00:41:18;5.70;99.90
4556;DHT22;2290;48.674;9.018;2023-03-17T00:43:43;5.80;99.90
4556;DHT22;2290;48.674;9.018;2023-03-17T00:46:15;5.70;99.90
4556;DHT22;2290;48.674;9.018;2023-03-17T00:48:42;5.70;99.90
4556;DHT22;2290;48.674;9.018;2023-03-17T00:51:11;5.70;99.90
4556;DHT22;2290;48.674;9.018;2023-03-17T00:53:37;5.70;99.90
4556;DHT22;2290;48.674;9.018;2023-03-17T00:56:09;5.70;99.90
4556;DHT22;2290;48.674;9.018;2023-03-17T00:58:35;5.70;99.90
4556;DHT22;2290;48.674;9.018;2023-03-17T01:01:02;5.70;99.90
4556;DHT22;2290;48.674;9.018;2023-03-17T01:03:28;5.80;99.90
4556;DHT22;2290;48.674;9.018;2023-03-17T01:05:54;5.80;99.90
4556;DHT22;2290;48.674;9.018;2023-03-17T01:08:22;5.80;99.90
4556;DHT22;2290;48.674;9.018;2023-03-17T01:10:49;5.80;99.90
4556;DHT22;2290;48.674;9.018;2023-03-17T01:13:15;5.90;99.90
4556;DHT22;2290;48.674;9.018;2023-03-17T01:15:43;5.80;99.90
4556;DHT22;2290;48.674;9.018;2023-03-17T01:18:12;5.60;99.90
4556;DHT22;2290;48.674;9.018;2023-03-17T01:20:38;5.50;99.90
4556;DHT22;2290;48.674;9.018;2023-03-17T01:23:04;5.50;99.90
4556;DHT22;2290;48.674;9.018;2023-03-17T01:25:30;5.60;99.90
4556;DHT22;2290;48.674;9.018;2023-03-17T01:27:58;5.60;99.90
4556;DHT22;2290;48.674;9.018;2023-03-17T01:30:35;5.60;99.90
4556;DHT22;2290;48.674;9.018;2023-03-17T01:33:05;5.70;99.90
4556;DHT22;2290;48.674;9.018;2023-03-17T01:35:33;5.60;99.90
4556;DHT22;2290;48.674;9.018;2023-03-17T01:38:00;5.90;99.90
4556;DHT22;2290;48.674;9.018;2023-03-17T01:40:28;5.70;99.90
4556;DHT22;2290;48.674;9.018;2023-03-17T01:43:22;5.80;99.90
4556;DHT22;2290;48.674;9.018;2023-03-17T01:49:21;5.60;99.90
4556;DHT22;2290;48.674;9.018;2023-03-17T01:54:36;5.60;99.90
4556;DHT22;2290;48.674;9.018;2023-03-17T01:57:19;5.70;99.90
4556;DHT22;2290;48.674;9.018;2023-03-17T02:00:04;5.70;99.90
4556;DHT22;2290;48.674;9.018;2023-03-17T02:02:39;5.70;99.90
4556;DHT22;2290;48.674;9.018;2023-03-17T02:05:09;5.60;99.90
4556;DHT22;2290;48.674;9.018;2023-03-17T02:07:36;5.60;99.90
4556;DHT22;2290;48.674;9.018;2023-03-17T02:10:03;5.70;99.90
4556;DHT22;2290;48.674;9.018;2023-03-17T02:12:29;5.60;99.90
4556;DHT22;2290;48.674;9.018;2023-03-17T02:14:57;5.70;99.90
4556;DHT22;2290;48.674;9.018;2023-03-17T02:17:24;5.70;99.90
4556;DHT22;2290;48.674;9.018;2023-03-17T02:19:51;5.70;99.90
4556;DHT22;2290;48.674;9.018;2023-03-17T02:22:18;5.60;99.90
4556;DHT22;2290;48.674;9.018;2023-03-17T02:27:20;5.60;99.90
4556;DHT22;2290;48.674;9.018;2023-03-17T02:29:45;5.60;99.90
4556;DHT22;2290;48.674;9.018;2023-03-17T02:32:14;5.50;99.90
4556;DHT22;2290;48.674;9.018;2023-03-17T02:34:41;5.40;99.90
4556;DHT22;2290;48.674;9.018;2023-03-17T02:37:07;5.40;99.90
4556;DHT22;2290;48.674;9.018;2023-03-17T02:39:33;5.30;99.90
4556;DHT22;2290;48.674;9.018;2023-03-17T02:41:59;5.30;99.90
4556;DHT22;2290;48.674;9.018;2023-03-17T02:44:25;5.40;99.90
4556;DHT22;2290;48.674;9.018;2023-03-17T02:46:51;5.30;99.90
4556;DHT22;2290;48.674;9.018;2023-03-17T02:49:17;5.30;99.90
4556;DHT22;2290;48.674;9.018;2023-03-17T02:51:43;5.30;99.90
4556;DHT22;2290;48.674;9.018;2023-03-17T02:54:09;5.30;99.90
4556;DHT22;2290;48.674;9.018;2023-03-17T02:56:35;5.30;99.90
4556;DHT22;2290;48.674;9.018;2023-03-17T02:59:01;5.40;99.90
4556;DHT22;2290;48.674;9.018;2023-03-17T03:01:27;5.50;99.90
4556;DHT22;2290;48.674;9.018;2023-03-17T03:03:53;5.50;99.90
4556;DHT22;2290;48.674;9.018;2023-03-17T03:06:19;5.50;99.90
4556;DHT22;2290;48.674;9.018;2023-03-17T03:08:44;5.60;99.90
4556;DHT22;2290;48.674;9.018;2023-03-17T03:11:10;5.60;99.90
4556;DHT22;2290;48.674;9.018;2023-03-17T03:13:36;5.60;99.90
4556;DHT22;2290;48.674;9.018;2023-03-17T03:16:02;5.70;99.90
4556;DHT22;2290;48.674;9.018;2023-03-17T03:18:29;5.70;99.90
4556;DHT22;2290;48.674;9.018;2023-03-17T03:20:56;5.60;99.90
4556;DHT22;2290;48.674;9.018;2023-03-17T03:23:22;5.60;99.90
4556;DHT22;2290;48.674;9.018;2023-03-17T03:25:48;5.70;99.90
4556;DHT22;2290;48.674;9.018;2023-03-17T03:28:14;5.60;99.90
4556;DHT22;2290;48.674;9.018;2023-03-17T03:30:39;5.60;99.90
4556;DHT22;2290;48.674;9.018;2023-03-17T03:33:06;5.70;99.90
4556;DHT22;2290;48.674;9.018;2023-03-17T03:35:32;5.70;99.90
4556;DHT22;2290;48.674;9.018;2023-03-17T03:37:59;5.80;99.90
4556;DHT22;2290;48.674;9.018;2023-03-17T03:40:25;5.90;99.90
4556;DHT22;2290;48.674;9.018;2023-03-17T03:42:51;6.00;99.90
4556;DHT22;2290;48.674;9.018;2023-03-17T03:45:17;6.10;99.90
4556;DHT22;2290;48.674;9.018;2023-03-17T03:47:43;6.10;99.90
4556;DHT22;2290;48.674;9.018;2023-03-17T03:50:09;6.20;99.90
4556;DHT22;2290;48.674;9.018;2023-03-17T03:52:36;6.20;99.90
4556;DHT22;2290;48.674;9.018;2023-03-17T03:55:01;6.30;99.90
4556;DHT22;2290;48.674;9.018;2023-03-17T03:57:27;6.40;99.90
4556;DHT22;2290;48.674;9.018;2023-03-17T03:59:53;6.40;99.90
4556;DHT22;2290;48.674;9.018;2023-03-17T04:02:18;6.40;99.90
4556;DHT22;2290;48.674;9.018;2023-03-17T04:04:44;6.50;99.90
4556;DHT22;2290;48.674;9.018;2023-03-17T04:07:10;6.50;99.90
4556;DHT22;2290;48.674;9.018;2023-03-17T04:09:35;6.60;99.90
4556;DHT22;2290;48.674;9.018;2023-03-17T04:12:02;6.60;99.90
4556;DHT22;2290;48.674;9.018;2023-03-17T04:14:27;6.50;99.90
4556;DHT22;2290;48.674;9.018;2023-03-17T04:16:53;6.50;99.90
4556;DHT22;2290;48.674;9.018;2023-03-17T04:19:19;6.40;99.90
4556;DHT22;2290;48.674;9.018;2023-03-17T04:21:46;6.10;99.90
4556;DHT22;2290;48.674;9.018;2023-03-17T04:24:11;6.00;99.90
4556;DHT22;2290;48.674;9.018;2023-03-17T04:26:38;6.00;99.90
4556;DHT22;2290;48.674;9.018;2023-03-17T04:29:04;5.90;99.90
4556;DHT22;2290;48.674;9.018;2023-03-17T04:31:33;5.90;99.90
4556;DHT22;2290;48.674;9.018;2023-03-17T04:33:58;5.90;99.90
4556;DHT22;2290;48.674;9.018;2023-03-17T04:36:24;5.90;99.90
4556;DHT22;2290;48.674;9.018;2023-03-17T04:38:49;5.90;99.90
4556;DHT22;2290;48.674;9.018;2023-03-17T04:41:15;5.90;99.90
4556;DHT22;2290;48.674;9.018;2023-03-17T04:43:41;5.90;99.90
4556;DHT22;2290;48.674;9.018;2023-03-17T04:46:07;5.90;99.90
4556;DHT22;2290;48.674;9.018;2023-03-17T04:48:33;5.90;99.90
4556;DHT22;2290;48.674;9.018;2023-03-17T04:50:59;6.00;99.90
4556;DHT22;2290;48.674;9.018;2023-03-17T04:53:26;6.00;99.90
4556;DHT22;2290;48.674;9.018;2023-03-17T04:55:52;5.90;99.90
4556;DHT22;2290;48.674;9.018;2023-03-17T04:58:19;5.90;99.90
4556;DHT22;2290;48.674;9.018;2023-03-17T05:00:47;5.80;99.90
4556;DHT22;2290;48.674;9.018;2023-03-17T05:03:12;5.70;99.90
4556;DHT22;2290;48.674;9.018;2023-03-17T05:05:38;5.60;99.90
4556;DHT22;2290;48.674;9.018;2023-03-17T05:08:04;5.40;99.90
4556;DHT22;2290;48.674;9.018;2023-03-17T05:10:31;5.20;99.90
4556;DHT22;2290;48.674;9.018;2023-03-17T05:12:57;5.20;99.90
4556;DHT22;2290;48.674;9.018;2023-03-17T05:15:22;5.20;99.90
4556;DHT22;2290;48.674;9.018;2023-03-17T05:17:48;5.20;99.90
4556;DHT22;2290;48.674;9.018;2023-03-17T05:20:13;5.20;99.90
4556;DHT22;2290;48.674;9.018;2023-03-17T05:22:40;5.10;99.90
4556;DHT22;2290;48.674;9.018;2023-03-17T05:25:06;5.10;99.90
4556;DHT22;2290;48.674;9.018;2023-03-17T05:27:32;5.00;99.90
4556;DHT22;2290;48.674;9.018;2023-03-17T05:29:59;5.00;99.90
4556;DHT22;2290;48.674;9.018;2023-03-17T05:32:28;4.90;99.90
4556;DHT22;2290;48.674;9.018;2023-03-17T05:34:54;4.80;99.90
4556;DHT22;2290;48.674;9.018;2023-03-17T05:37:19;4.70;99.90
4556;DHT22;2290;48.674;9.018;2023-03-17T05:39:45;4.50;99.90
4556;DHT22;2290;48.674;9.018;2023-03-17T05:42:10;4.40;99.90
4556;DHT22;2290;48.674;9.018;2023-03-17T05:44:36;4.40;99.90
4556;DHT22;2290;48.674;9.018;2023-03-17T05:47:02;4.30;99.90
4556;DHT22;2290;48.674;9.018;2023-03-17T05:49:28;4.30;99.90
4556;DHT22;2290;48.674;9.018;2023-03-17T05:51:55;4.30;99.90
4556;DHT22;2290;48.674;9.018;2023-03-17T05:54:21;4.30;99.90
4556;DHT22;2290;48.674;9.018;2023-03-17T05:56:49;4.30;99.90
4556;DHT22;2290;48.674;9.018;2023-03-17T05:59:16;4.20;99.90
4556;DHT22;2290;48.674;9.018;2023-03-17T06:01:44;4.20;99.90
4556;DHT22;2290;48.674;9.018;2023-03-17T06:04:11;4.20;99.90
4556;DHT22;2290;48.674;9.018;2023-03-17T06:06:37;4.30;99.90
4556;DHT22;2290;48.674;9.018;2023-03-17T06:09:03;4.30;99.90
4556;DHT22;2290;48.674;9.018;2023-03-17T06:11:28;4.30;99.90
4556;DHT22;2290;48.674;9.018;2023-03-17T06:13:54;4.30;99.90
4556;DHT22;2290;48.674;9.018;2023-03-17T06:16:20;4.30;99.90
4556;DHT22;2290;48.674;9.018;2023-03-17T06:18:46;4.40;99.90
4556;DHT22;2290;48.674;9.018;2023-03-17T06:21:15;4.50;99.90
4556;DHT22;2290;48.674;9.018;2023-03-17T06:23:42;4.50;99.90
4556;DHT22;2290;48.674;9.018;2023-03-17T06:26:08;4.50;99.90
4556;DHT22;2290;48.674;9.018;2023-03-17T06:28:35;4.50;99.90
4556;DHT22;2290;48.674;9.018;2023-03-17T06:31:00;4.40;99.90
4556;DHT22;2290;48.674;9.018;2023-03-17T06:33:26;4.40;99.90
4556;DHT22;2290;48.674;9.018;2023-03-17T06:35:52;4.50;99.90
4556;DHT22;2290;48.674;9.018;2023-03-17T06:38:18;4.70;99.90
4556;DHT22;2290;48.674;9.018;2023-03-17T06:40:45;4.90;99.90
4556;DHT22;2290;48.674;9.018;2023-03-17T06:43:10;4.90;99.90
4556;DHT22;2290;48.674;9.018;2023-03-17T06:45:37;5.00;99.90
4556;DHT22;2290;48.674;9.018;2023-03-17T06:48:03;4.90;99.90
4556;DHT22;2290;48.674;9.018;2023-03-17T06:50:29;5.00;99.90
4556;DHT22;2290;48.674;9.018;2023-03-17T06:52:55;5.20;99.90
4556;DHT22;2290;48.674;9.018;2023-03-17T06:55:21;5.30;99.90
4556;DHT22;2290;48.674;9.018;2023-03-17T06:57:47;5.40;99.90
4556;DHT22;2290;48.674;9.018;2023-03-17T07:00:13;5.60;99.90
4556;DHT22;2290;48.674;9.018;2023-03-17T07:02:39;5.80;99.90
4556;DHT22;2290;48.674;9.018;2023-03-17T07:05:05;5.90;99.90
4556;DHT22;2290;48.674;9.018;2023-03-17T07:07:32;6.10;99.90
4556;DHT22;2290;48.674;9.018;2023-03-17T07:10:01;6.20;99.90
4556;DHT22;2290;48.674;9.018;2023-03-17T07:12:26;6.50;99.90
4556;DHT22;2290;48.674;9.018;2023-03-17T07:14:53;6.40;99.90
4556;DHT22;2290;48.674;9.018;2023-03-17T07:17:18;6.60;99.90
4556;DHT22;2290;48.674;9.018;2023-03-17T07:19:44;6.70;99.90
4556;DHT22;2290;48.674;9.018;2023-03-17T07:22:12;7.00;99.90
4556;DHT22;2290;48.674;9.018;2023-03-17T07:24:38;7.20;99.90
4556;DHT22;2290;48.674;9.018;2023-03-17T07:27:04;7.40;99.90
4556;DHT22;2290;48.674;9.018;2023-03-17T07:29:30;7.60;99.90
4556;DHT22;2290;48.674;9.018;2023-03-17T07:31:58;7.80;99.90
4556;DHT22;2290;48.674;9.018;2023-03-17T07:34:23;7.90;99.90
4556;DHT22;2290;48.674;9.018;2023-03-17T07:36:49;8.00;99.90
4556;DHT22;2290;48.674;9.018;2023-03-17T07:39:15;8.20;99.90
4556;DHT22;2290;48.674;9.018;2023-03-17T07:41:41;8.30;99.90
4556;DHT22;2290;48.674;9.018;2023-03-17T07:44:08;8.40;99.90
4556;DHT22;2290;48.674;9.018;2023-03-17T07:46:35;8.50;99.90
4556;DHT22;2290;48.674;9.018;2023-03-17T07:49:02;8.70;99.90
4556;DHT22;2290;48.674;9.018;2023-03-17T07:51:28;8.70;99.90
4556;DHT22;2290;48.674;9.018;2023-03-17T07:53:54;8.80;99.90
4556;DHT22;2290;48.674;9.018;2023-03-17T07:56:28;9.00;99.90
4556;DHT22;2290;48.674;9.018;2023-03-17T07:58:54;9.10;99.90
4556;DHT22;2290;48.674;9.018;2023-03-17T08:01:21;9.20;99.90
4556;DHT22;2290;48.674;9.018;2023-03-17T08:03:47;9.30;99.90
4556;DHT22;2290;48.674;9.018;2023-03-17T08:06:13;9.50;99.40
4556;DHT22;2290;48.674;9.018;2023-03-17T08:08:38;9.60;99.30
4556;DHT22;2290;48.674;9.018;2023-03-17T08:11:04;9.60;99.00
4556;DHT22;2290;48.674;9.018;2023-03-17T08:13:31;9.70;99.20
4556;DHT22;2290;48.674;9.018;2023-03-17T08:15:57;9.80;98.50
4556;DHT22;2290;48.674;9.018;2023-03-17T08:18:22;10.00;97.70
4556;DHT22;2290;48.674;9.018;2023-03-17T08:20:48;10.00;97.50
4556;DHT22;2290;48.674;9.018;2023-03-17T08:23:16;10.00;97.80
4556;DHT22;2290;48.674;9.018;2023-03-17T08:25:42;10.20;97.50
4556;DHT22;2290;48.674;9.018;2023-03-17T08:28:09;10.10;97.40
4556;DHT22;2290;48.674;9.018;2023-03-17T08:30:35;10.20;97.60
4556;DHT22;2290;48.674;9.018;2023-03-17T08:33:01;10.30;97.70
4556;DHT22;2290;48.674;9.018;2023-03-17T08:35:28;10.30;97.70
4556;DHT22;2290;48.674;9.018;2023-03-17T08:37:54;10.40;97.00
4556;DHT22;2290;48.674;9.018;2023-03-17T08:40:20;10.50;96.80
4556;DHT22;2290;48.674;9.018;2023-03-17T08:42:47;10.50;96.90
4556;DHT22;2290;48.674;9.018;2023-03-17T08:45:15;10.50;96.40
4556;DHT22;2290;48.674;9.018;2023-03-17T08:47:43;10.60;96.60
4556;DHT22;2290;48.674;9.018;2023-03-17T08:50:13;10.70;96.40
4556;DHT22;2290;48.674;9.018;2023-03-17T08:52:41;10.70;96.70
4556;DHT22;2290;48.674;9.018;2023-03-17T08:55:07;10.80;96.20
4556;DHT22;2290;48.674;9.018;2023-03-17T08:57:34;10.80;96.60
4556;DHT22;2290;48.674;9.018;2023-03-17T08:59:59;10.80;96.20
4556;DHT22;2290;48.674;9.018;2023-03-17T09:02:26;10.90;96.30
4556;DHT22;2290;48.674;9.018;2023-03-17T09:04:53;10.90;96.50
4556;DHT22;2290;48.674;9.018;2023-03-17T09:07:18;11.00;96.70
4556;DHT22;2290;48.674;9.018;2023-03-17T09:09:44;11.10;96.50
4556;DHT22;2290;48.674;9.018;2023-03-17T09:12:13;11.10;96.40
4556;DHT22;2290;48.674;9.018;2023-03-17T09:14:38;11.30;96.40
4556;DHT22;2290;48.674;9.018;2023-03-17T09:17:05;11.40;96.40
4556;DHT22;2290;48.674;9.018;2023-03-17T09:19:32;11.60;96.60
4556;DHT22;2290;48.674;9.018;2023-03-17T09:21:57;11.80;96.40
4556;DHT22;2290;48.674;9.018;2023-03-17T09:24:23;12.00;96.60
4556;DHT22;2290;48.674;9.018;2023-03-17T09:26:49;12.10;96.00
4556;DHT22;2290;48.674;9.018;2023-03-17T09:29:14;12.10;96.20
4556;DHT22;2290;48.674;9.018;2023-03-17T09:31:40;12.10;96.30
4556;DHT22;2290;48.674;9.018;2023-03-17T09:34:07;12.30;96.50
4556;DHT22;2290;48.674;9.018;2023-03-17T09:36:33;12.50;96.60
4556;DHT22;2290;48.674;9.018;2023-03-17T09:38:59;12.80;96.40
4556;DHT22;2290;48.674;9.018;2023-03-17T09:41:32;13.00;96.00
4556;DHT22;2290;48.674;9.018;2023-03-17T09:49:57;13.80;95.20
4556;DHT22;2290;48.674;9.018;2023-03-17T09:52:27;14.10;95.10
4556;DHT22;2290;48.674;9.018;2023-03-17T09:54:53;14.30;94.60
4556;DHT22;2290;48.674;9.018;2023-03-17T09:57:39;14.60;94.30
4556;DHT22;2290;48.674;9.018;2023-03-17T10:00:16;14.90;93.60
4556;DHT22;2290;48.674;9.018;2023-03-17T10:02:43;15.30;92.90
4556;DHT22;2290;48.674;9.018;2023-03-17T10:05:19;15.50;92.10
4556;DHT22;2290;48.674;9.018;2023-03-17T10:08:18;15.50;91.90
4556;DHT22;2290;48.674;9.018;2023-03-17T10:11:29;15.70;91.60
4556;DHT22;2290;48.674;9.018;2023-03-17T10:16:56;16.00;90.70
4556;DHT22;2290;48.674;9.018;2023-03-17T10:22:00;16.00;90.40
4556;DHT22;2290;48.674;9.018;2023-03-17T10:24:30;16.00;89.00
4556;DHT22;2290;48.674;9.018;2023-03-17T10:27:00;16.10;89.10
4556;DHT22;2290;48.674;9.018;2023-03-17T10:29:27;16.10;85.60
4556;DHT22;2290;48.674;9.018;2023-03-17T10:31:53;16.10;86.50
4556;DHT22;2290;48.674;9.018;2023-03-17T10:34:26;16.30;89.40
4556;DHT22;2290;48.674;9.018;2023-03-17T10:36:58;16.30;87.10
4556;DHT22;2290;48.674;9.018;2023-03-17T10:39:24;16.40;84.80
4556;DHT22;2290;48.674;9.018;2023-03-17T10:42:07;16.60;86.30
4556;DHT22;2290;48.674;9.018;2023-03-17T10:44:54;16.70;86.60
4556;DHT22;2290;48.674;9.018;2023-03-17T10:47:36;16.80;81.40
4556;DHT22;2290;48.674;9.018;2023-03-17T10:56:18;16.90;81.70
4556;DHT22;2290;48.674;9.018;2023-03-17T10:59:41;16.90;81.70
4556;DHT22;2290;48.674;9.018;2023-03-17T11:10:00;17.10;80.80
4556;DHT22;2290;48.674;9.018;2023-03-17T11:16:50;17.40;80.40
4556;DHT22;2290;48.674;9.018;2023-03-17T11:34:15;17.70;80.80
4556;DHT22;2290;48.674;9.018;2023-03-17T11:37:57;17.90;82.70
4556;DHT22;2290;48.674;9.018;2023-03-17T12:10:23;19.10;72.10
4556;DHT22;2290;48.674;9.018;2023-03-17T12:16:04;19.20;72.10
4556;DHT22;2290;48.674;9.018;2023-03-17T12:40:16;19.10;67.70
4556;DHT22;2290;48.674;9.018;2023-03-17T12:53:31;19.00;65.80
4556;DHT22;2290;48.674;9.018;2023-03-17T12:57:27;18.90;67.20
4556;DHT22;2290;48.674;9.018;2023-03-17T13:07:22;18.80;65.70
4556;DHT22;2290;48.674;9.018;2023-03-17T13:10:47;19.00;68.20
4556;DHT22;2290;48.674;9.018;2023-03-17T13:25:10;19.00;64.80
4556;DHT22;2290;48.674;9.018;2023-03-17T13:34:28;19.20;65.50
4556;DHT22;2290;48.674;9.018;2023-03-17T14:01:25;20.20;66.10
4556;DHT22;2290;48.674;9.018;2023-03-17T14:04:58;20.40;69.00
4556;DHT22;2290;48.674;9.018;2023-03-17T14:11:38;20.80;71.60
4556;DHT22;2290;48.674;9.018;2023-03-17T14:23:16;20.90;73.60
4556;DHT22;2290;48.674;9.018;2023-03-17T14:26:17;20.80;73.60
4556;DHT22;2290;48.674;9.018;2023-03-17T14:29:14;20.80;74.30
4556;DHT22;2290;48.674;9.018;2023-03-17T14:32:14;20.60;74.30
4556;DHT22;2290;48.674;9.018;2023-03-17T14:35:00;20.50;73.20
4556;DHT22;2290;48.674;9.018;2023-03-17T14:41:35;21.20;73.50
4556;DHT22;2290;48.674;9.018;2023-03-17T14:47:36;23.10;70.20
4556;DHT22;2290;48.674;9.018;2023-03-17T14:50:17;23.50;69.20
4556;DHT22;2290;48.674;9.018;2023-03-17T14:53:07;23.20;66.40
4556;DHT22;2290;48.674;9.018;2023-03-17T14:55:56;22.80;67.20
4556;DHT22;2290;48.674;9.018;2023-03-17T14:58:52;22.20;68.50
4556;DHT22;2290;48.674;9.018;2023-03-17T15:07:47;20.80;69.30
4556;DHT22;2290;48.674;9.018;2023-03-17T15:10:41;20.70;70.40
4556;DHT22;2290;48.674;9.018;2023-03-17T15:13:32;20.60;71.00
4556;DHT22;2290;48.674;9.018;2023-03-17T15:16:49;20.40;72.20
4556;DHT22;2290;48.674;9.018;2023-03-17T15:20:02;20.30;72.70
4556;DHT22;2290;48.674;9.018;2023-03-17T15:23:37;20.20;73.00
4556;DHT22;2290;48.674;9.018;2023-03-17T15:26:34;19.80;73.80
4556;DHT22;2290;48.674;9.018;2023-03-17T15:29:56;19.50;73.90
4556;DHT22;2290;48.674;9.018;2023-03-17T15:32:58;19.20;73.30
4556;DHT22;2290;48.674;9.018;2023-03-17T15:38:53;18.80;74.70
4556;DHT22;2290;48.674;9.018;2023-03-17T15:42:03;18.60;74.80
4556;DHT22;2290;48.674;9.018;2023-03-17T15:44:54;18.50;75.30
4556;DHT22;2290;48.674;9.018;2023-03-17T16:05:34;18.30;81.10
4556;DHT22;2290;48.674;9.018;2023-03-17T16:19:19;17.80;83.30
4556;DHT22;2290;48.674;9.018;2023-03-17T16:44:55;16.70;90.30
4556;DHT22;2290;48.674;9.018;2023-03-17T16:48:25;16.60;90.80
4556;DHT22;2290;48.674;9.018;2023-03-17T16:51:34;16.50;90.40
4556;DHT22;2290;48.674;9.018;2023-03-17T17:02:19;16.10;90.60
